Time;durP1;ratioP1;P1;durP2;ratioP2;P2;SDS_P1;SDS_P2;PMS_P1;PMS_P2;Temp;Humidity;BMP_temperature;BMP_pressure;BME280_temperature;BME280_humidity;BME280_pressure;Samples;Min_cycle;Max_cycle;Signal;HPM_P1;HPM_P2
2022/02/08 00:02:14;;;;;;;4.93;1.17;;;8.50;99.90;;;;;;4965375;28;20701;-91
2022/02/08 00:04:40;;;;;;;1.70;0.70;;;8.50;99.90;;;;;;4956926;28;20193;-92
2022/02/08 00:07:08;;;;;;;12.20;1.37;;;8.60;99.90;;;;;;4955474;28;21200;-91
2022/02/08 00:09:34;;;;;;;13.80;2.07;;;8.60;99.90;;;;;;4955277;28;20209;-91
2022/02/08 00:12:00;;;;;;;2.23;1.23;;;8.60;99.90;;;;;;4954939;28;21109;-91
2022/02/08 00:14:27;;;;;;;3.60;1.53;;;8.60;99.90;;;;;;4981071;28;20676;-91
2022/02/08 00:16:53;;;;;;;0.73;0.70;;;8.60;99.90;;;;;;4995467;28;20541;-90
2022/02/08 00:19:19;;;;;;;1.80;1.30;;;8.70;99.90;;;;;;4956155;28;20192;-91
2022/02/08 00:21:45;;;;;;;0.90;0.67;;;8.60;99.90;;;;;;4961902;28;20219;-91
2022/02/08 00:24:10;;;;;;;14.67;3.13;;;8.60;99.90;;;;;;4976153;28;20253;-92
2022/02/08 00:26:36;;;;;;;5.50;1.10;;;8.60;99.90;;;;;;4955398;28;20283;-92
2022/02/08 00:29:03;;;;;;;2.67;1.77;;;8.60;99.90;;;;;;4971405;28;20331;-90
2022/02/08 00:31:29;;;;;;;3.87;1.53;;;8.60;99.90;;;;;;4971514;28;20192;-92
2022/02/08 00:33:55;;;;;;;1.73;1.53;;;8.60;99.90;;;;;;4978591;28;20628;-91
2022/02/08 00:36:22;;;;;;;1.73;1.33;;;8.60;99.90;;;;;;4971246;28;20219;-92
2022/02/08 00:38:49;;;;;;;4.63;1.80;;;8.60;99.90;;;;;;4961886;28;20319;-92
2022/02/08 00:41:16;;;;;;;3.50;0.43;;;8.60;99.90;;;;;;4980298;28;20632;-91
2022/02/08 00:44:20;;;;;;;2.53;0.73;;;8.60;99.90;;;;;;4979127;28;20191;-93
2022/02/08 00:49:08;;;;;;;3.73;1.63;;;8.70;99.90;;;;;;4979785;28;20212;-93
2022/02/08 00:51:47;;;;;;;5.73;1.43;;;8.70;99.90;;;;;;4946611;28;20209;-91
2022/02/08 00:54:17;;;;;;;3.10;1.20;;;8.70;99.90;;;;;;4972473;28;20278;-95
2022/02/08 00:56:43;;;;;;;1.53;1.20;;;8.70;99.90;;;;;;4978947;28;20613;-93
2022/02/08 00:59:09;;;;;;;5.10;1.57;;;8.70;99.90;;;;;;4954187;28;20654;-92
2022/02/08 01:01:38;;;;;;;2.40;1.17;;;8.60;99.90;;;;;;4956260;28;20212;-92
2022/02/08 01:04:06;;;;;;;1.50;1.40;;;8.60;99.90;;;;;;4980006;28;20212;-90
2022/02/08 01:06:32;;;;;;;1.03;0.47;;;8.70;99.90;;;;;;4985957;28;20212;-93
2022/02/08 01:09:10;;;;;;;3.33;1.73;;;8.70;99.90;;;;;;4973557;28;20216;-92
2022/02/08 01:11:36;;;;;;;1.10;0.70;;;8.70;99.90;;;;;;4980173;28;20211;-90
2022/02/08 01:14:03;;;;;;;3.23;1.30;;;8.70;99.90;;;;;;4963856;28;20192;-91
2022/02/08 01:16:29;;;;;;;9.67;2.07;;;8.70;99.90;;;;;;4963362;28;20239;-94
2022/02/08 01:18:56;;;;;;;1.60;1.23;;;8.60;99.90;;;;;;4953979;28;21048;-93
2022/02/08 01:21:23;;;;;;;11.10;1.57;;;8.60;99.90;;;;;;4958056;28;20587;-93
2022/02/08 01:23:49;;;;;;;9.67;1.57;;;8.60;99.90;;;;;;4982849;28;20219;-93
2022/02/08 01:26:17;;;;;;;1.17;0.97;;;8.60;99.90;;;;;;4958271;28;20212;-90
2022/02/08 01:28:51;;;;;;;4.13;1.90;;;8.60;99.90;;;;;;4981399;28;20723;-93
2022/02/08 01:31:19;;;;;;;1.00;0.90;;;8.60;99.90;;;;;;4975686;28;20208;-90
2022/02/08 01:34:11;;;;;;;7.37;1.70;;;8.70;99.90;;;;;;4974294;28;21092;-92
2022/02/08 01:37:01;;;;;;;2.80;1.77;;;8.60;99.90;;;;;;4983589;28;20901;-92
2022/02/08 01:39:38;;;;;;;3.93;1.97;;;8.70;99.90;;;;;;4972402;28;20220;-91
2022/02/08 01:42:30;;;;;;;6.03;1.27;;;8.60;99.90;;;;;;4965829;28;20232;-91
2022/02/08 01:45:09;;;;;;;16.23;1.63;;;8.60;99.90;;;;;;4958174;28;20791;-89
2022/02/08 01:50:37;;;;;;;7.70;1.00;;;8.70;99.90;;;;;;4933076;28;20222;-92
2022/02/08 01:53:05;;;;;;;4.27;1.17;;;8.70;99.90;;;;;;4965564;28;20215;-91
2022/02/08 01:55:32;;;;;;;2.73;2.03;;;8.70;99.90;;;;;;4967699;28;20202;-92
2022/02/08 01:57:59;;;;;;;2.40;1.57;;;8.80;99.90;;;;;;4982536;28;20640;-92
2022/02/08 02:00:25;;;;;;;4.50;1.43;;;8.80;99.90;;;;;;4965378;28;20263;-91
2022/02/08 02:02:51;;;;;;;4.87;1.37;;;8.80;99.90;;;;;;4974067;28;20220;-93
2022/02/08 02:05:17;;;;;;;2.43;1.90;;;8.80;99.90;;;;;;4949975;28;20223;-89
2022/02/08 02:07:50;;;;;;;4.87;1.33;;;8.90;99.90;;;;;;4967799;28;20194;-92
2022/02/08 02:10:18;;;;;;;7.93;1.17;;;8.90;99.90;;;;;;4983445;28;20219;-91
2022/02/08 02:13:00;;;;;;;8.33;2.87;;;8.90;99.90;;;;;;4999171;28;20272;-92
2022/02/08 02:15:27;;;;;;;2.03;1.43;;;9.00;99.90;;;;;;4983433;28;20303;-92
2022/02/08 02:17:54;;;;;;;3.13;1.83;;;9.00;99.90;;;;;;4974211;28;20224;-92
2022/02/08 02:20:21;;;;;;;6.63;1.50;;;9.00;99.90;;;;;;4966121;28;20220;-91
2022/02/08 02:22:47;;;;;;;5.33;1.03;;;9.00;99.90;;;;;;4967373;28;20215;-93
2022/02/08 02:25:30;;;;;;;3.57;1.83;;;9.10;99.90;;;;;;4981331;28;21188;-90
2022/02/08 02:28:00;;;;;;;2.13;2.00;;;9.10;99.90;;;;;;4969962;28;20223;-91
2022/02/08 02:30:30;;;;;;;5.93;4.87;;;9.10;99.90;;;;;;4980185;28;20502;-90
2022/02/08 02:32:58;;;;;;;2.60;1.27;;;9.20;99.90;;;;;;4972806;28;20217;-91
2022/02/08 02:35:26;;;;;;;17.03;1.40;;;9.20;99.90;;;;;;4957815;28;20209;-91
2022/02/08 02:37:54;;;;;;;2.43;1.10;;;9.20;99.90;;;;;;4972860;28;20646;-91
2022/02/08 02:40:22;;;;;;;19.97;1.60;;;9.30;99.90;;;;;;4966055;28;20549;-92
2022/02/08 02:42:52;;;;;;;5.77;2.03;;;9.30;99.90;;;;;;4982323;28;20235;-91
2022/02/08 02:45:20;;;;;;;1.53;1.20;;;9.30;99.90;;;;;;4980372;28;20221;-92
2022/02/08 02:47:52;;;;;;;2.47;2.03;;;9.30;99.90;;;;;;4973419;28;20207;-92
2022/02/08 02:50:21;;;;;;;3.57;1.50;;;9.30;99.90;;;;;;4981212;28;20243;-92
2022/02/08 02:52:47;;;;;;;1.00;1.00;;;9.30;99.90;;;;;;4982543;28;20207;-91
2022/02/08 02:55:15;;;;;;;1.27;1.17;;;9.30;99.90;;;;;;4980683;28;20216;-91
2022/02/08 02:57:43;;;;;;;3.23;2.63;;;9.30;99.90;;;;;;4977474;28;20209;-90
2022/02/08 03:00:14;;;;;;;2.23;0.90;;;9.30;99.90;;;;;;4992445;28;20255;-92
2022/02/08 03:02:56;;;;;;;6.70;2.03;;;9.40;99.90;;;;;;4957200;28;20753;-92
2022/02/08 03:18:50;;;;;;;0.77;0.77;;;9.40;99.90;;;;;;4968855;28;20220;-93
2022/02/08 03:21:16;;;;;;;4.63;2.80;;;9.40;99.90;;;;;;4960792;28;20246;-91
2022/02/08 03:23:43;;;;;;;8.03;2.43;;;9.40;99.90;;;;;;4949544;28;20219;-91
2022/02/08 03:26:08;;;;;;;4.37;1.93;;;9.40;99.90;;;;;;4979390;28;20177;-90
2022/02/08 03:28:35;;;;;;;1.80;1.10;;;9.40;99.90;;;;;;4970421;28;20188;-91
2022/02/08 03:31:01;;;;;;;3.30;3.03;;;9.40;99.90;;;;;;4965138;28;20215;-91
2022/02/08 03:33:27;;;;;;;7.83;1.10;;;9.50;99.90;;;;;;4964183;28;20248;-92
2022/02/08 03:35:55;;;;;;;11.57;2.20;;;9.50;99.90;;;;;;4962321;28;20267;-91
2022/02/08 03:38:39;;;;;;;2.77;1.83;;;9.50;99.90;;;;;;4964682;28;20299;-92
2022/02/08 03:41:08;;;;;;;4.87;1.87;;;9.60;99.90;;;;;;4996389;28;20666;-91
2022/02/08 03:43:36;;;;;;;3.43;1.43;;;9.60;99.90;;;;;;4981684;28;20262;-91
2022/02/08 03:46:07;;;;;;;6.93;2.03;;;9.60;99.90;;;;;;4956746;28;20212;-92
2022/02/08 03:48:35;;;;;;;3.33;0.83;;;9.60;99.90;;;;;;4979841;28;20247;-91
2022/02/08 03:51:11;;;;;;;0.83;0.83;;;9.60;99.90;;;;;;4972765;28;20319;-92
2022/02/08 03:53:41;;;;;;;4.83;1.20;;;9.60;99.90;;;;;;4981606;28;20685;-91
2022/02/08 03:56:07;;;;;;;7.77;1.10;;;9.60;99.90;;;;;;4987753;28;20275;-91
2022/02/08 03:58:34;;;;;;;1.90;1.30;;;9.70;99.90;;;;;;4982096;28;20196;-92
2022/02/08 04:03:33;;;;;;;5.30;1.23;;;9.70;99.90;;;;;;4966501;28;20211;-91
2022/02/08 04:06:01;;;;;;;2.50;0.77;;;9.70;99.90;;;;;;4963436;28;21387;-91
2022/02/08 04:08:29;;;;;;;4.33;1.50;;;9.80;99.90;;;;;;4981815;28;20225;-91
2022/02/08 04:10:58;;;;;;;5.70;1.70;;;9.80;99.90;;;;;;4957087;28;20215;-92
2022/02/08 04:13:42;;;;;;;3.70;1.00;;;9.80;99.90;;;;;;4973386;28;20188;-92
2022/02/08 04:16:22;;;;;;;1.13;0.77;;;9.80;99.90;;;;;;4987131;28;20317;-92
2022/02/08 04:18:57;;;;;;;4.83;1.57;;;9.80;99.90;;;;;;4952721;28;20223;-91
2022/02/08 04:32:36;;;;;;;2.13;1.30;;;9.90;99.90;;;;;;4978493;28;20219;-91
2022/02/08 04:35:37;;;;;;;5.20;1.23;;;10.00;99.90;;;;;;4964864;28;20666;-91
2022/02/08 04:41:03;;;;;;;2.63;1.27;;;10.00;99.90;;;;;;4982512;28;20192;-90
2022/02/08 04:43:58;;;;;;;3.60;1.77;;;10.00;99.90;;;;;;4965648;28;20808;-93
2022/02/08 04:48:54;;;;;;;2.07;1.10;;;10.00;99.90;;;;;;4995908;28;20220;-92
2022/02/08 04:51:28;;;;;;;4.53;1.00;;;10.00;99.90;;;;;;4957597;28;20252;-91
2022/02/08 04:54:08;;;;;;;0.53;0.50;;;10.00;99.90;;;;;;4971274;28;20258;-92
2022/02/08 04:57:05;;;;;;;0.27;0.27;;;10.00;99.90;;;;;;4983496;28;20709;-92
2022/02/08 05:43:01;;;;;;;2.43;1.93;;;10.20;99.90;;;;;;4994041;28;20228;-93
2022/02/08 05:45:31;;;;;;;8.57;1.13;;;10.20;99.90;;;;;;4978632;28;20307;-91
2022/02/08 05:48:01;;;;;;;2.00;0.67;;;10.10;99.90;;;;;;4966870;28;20676;-91
2022/02/08 05:50:57;;;;;;;1.77;1.33;;;10.10;99.90;;;;;;4975851;28;20219;-93
2022/02/08 05:53:29;;;;;;;0.77;0.77;;;10.10;99.90;;;;;;4968922;28;20216;-91
2022/02/08 05:55:55;;;;;;;3.77;1.00;;;10.00;99.90;;;;;;4963285;28;20651;-92
2022/02/08 05:58:21;;;;;;;0.87;0.87;;;10.00;99.90;;;;;;4958900;28;20647;-89
2022/02/08 06:00:47;;;;;;;0.20;0.20;;;9.90;99.90;;;;;;4980615;28;20302;-92
2022/02/08 06:03:13;;;;;;;4.73;1.17;;;9.90;99.90;;;;;;4966137;28;20590;-90
2022/02/08 06:05:39;;;;;;;0.73;0.73;;;9.80;99.90;;;;;;4957105;28;20680;-91
2022/02/08 06:08:05;;;;;;;9.20;1.77;;;9.80;99.90;;;;;;4967813;28;20193;-90
2022/02/08 06:10:32;;;;;;;5.93;1.70;;;9.80;99.90;;;;;;4980902;28;20657;-92
2022/02/08 06:12:58;;;;;;;4.77;0.80;;;9.80;99.90;;;;;;4967710;28;20195;-92
2022/02/08 06:15:26;;;;;;;1.57;1.30;;;9.80;99.90;;;;;;4998587;28;20212;-91
2022/02/08 06:17:55;;;;;;;4.93;1.80;;;9.90;99.90;;;;;;4980745;28;20226;-91
2022/02/08 06:20:21;;;;;;;4.57;1.53;;;9.80;99.90;;;;;;4981674;28;20216;-89
2022/02/08 06:22:47;;;;;;;3.13;1.50;;;9.80;99.90;;;;;;4957261;28;20761;-91
2022/02/08 06:25:16;;;;;;;0.57;0.57;;;9.80;99.90;;;;;;4972707;28;20646;-91
2022/02/08 06:27:45;;;;;;;1.53;1.43;;;9.90;99.90;;;;;;4956810;28;20718;-90
2022/02/08 06:30:12;;;;;;;2.57;0.87;;;9.90;99.90;;;;;;4979488;28;20248;-89
2022/02/08 06:32:38;;;;;;;3.27;0.77;;;9.80;99.90;;;;;;4973143;28;20564;-91
2022/02/08 06:35:11;;;;;;;5.77;0.83;;;9.80;99.90;;;;;;4982633;28;20555;-91
2022/02/08 06:37:39;;;;;;;1.97;1.77;;;9.80;99.90;;;;;;4983002;28;20560;-90
2022/02/08 06:40:06;;;;;;;2.67;1.63;;;9.80;99.90;;;;;;4967264;28;20299;-92
2022/02/08 06:42:32;;;;;;;1.83;1.73;;;9.80;99.90;;;;;;4981691;28;20228;-91
2022/02/08 06:44:58;;;;;;;3.10;1.00;;;9.80;99.90;;;;;;4978332;28;20222;-91
2022/02/08 06:47:24;;;;;;;5.30;1.63;;;9.80;99.90;;;;;;4962881;28;20227;-90
2022/02/08 06:49:50;;;;;;;4.90;0.53;;;9.80;99.90;;;;;;4979920;28;20549;-89
2022/02/08 06:52:16;;;;;;;2.97;1.33;;;9.80;99.90;;;;;;4973082;28;20566;-90
2022/02/08 06:54:42;;;;;;;2.93;1.07;;;9.70;99.90;;;;;;4980983;28;20212;-90
2022/02/08 06:57:08;;;;;;;0.40;0.40;;;9.70;99.90;;;;;;4979778;28;20255;-90
2022/02/08 06:59:38;;;;;;;1.13;1.00;;;9.70;99.90;;;;;;4962136;28;20821;-91
2022/02/08 07:02:06;;;;;;;2.43;1.07;;;9.60;99.90;;;;;;4957730;28;20251;-90
2022/02/08 07:04:32;;;;;;;3.13;2.03;;;9.70;99.90;;;;;;4952688;28;20187;-90
2022/02/08 07:06:58;;;;;;;1.47;0.73;;;9.70;99.90;;;;;;4965575;28;20211;-92
2022/02/08 07:09:24;;;;;;;5.47;0.90;;;9.70;99.90;;;;;;4958559;28;20223;-93
2022/02/08 07:11:51;;;;;;;5.73;1.60;;;9.80;99.90;;;;;;4981366;28;20251;-91
2022/02/08 07:14:16;;;;;;;1.93;1.57;;;9.80;99.90;;;;;;4975093;28;20681;-91
2022/02/08 07:16:45;;;;;;;2.57;1.30;;;9.80;99.90;;;;;;4948355;28;20184;-89
2022/02/08 07:19:10;;;;;;;12.27;0.97;;;9.80;99.90;;;;;;4971004;28;20216;-89
2022/02/08 07:21:36;;;;;;;4.03;1.30;;;9.80;99.90;;;;;;4964342;28;20223;-90
2022/02/08 07:24:03;;;;;;;1.27;1.13;;;9.90;99.90;;;;;;4972473;28;20579;-89
2022/02/08 07:26:29;;;;;;;4.90;1.70;;;9.90;99.90;;;;;;4983958;28;20223;-90
2022/02/08 07:28:54;;;;;;;0.33;0.33;;;9.90;99.90;;;;;;4949079;28;20192;-91
2022/02/08 07:31:23;;;;;;;2.80;0.90;;;10.00;99.90;;;;;;4983612;28;20236;-92
2022/02/08 07:34:07;;;;;;;2.93;2.67;;;10.00;99.90;;;;;;4972609;28;20226;-91
2022/02/08 07:36:43;;;;;;;3.10;1.73;;;10.10;99.90;;;;;;4959715;28;20706;-93
2022/02/08 07:39:11;;;;;;;6.43;2.40;;;10.10;99.90;;;;;;4962267;28;20291;-96
2022/02/08 07:41:42;;;;;;;2.80;1.80;;;10.10;99.90;;;;;;4977302;28;20221;-93
2022/02/08 07:44:12;;;;;;;5.10;2.83;;;10.10;99.90;;;;;;4973652;28;20189;-94
2022/02/08 07:46:40;;;;;;;5.10;1.47;;;10.10;99.90;;;;;;4996321;28;20231;-96
2022/02/08 07:49:06;;;;;;;2.97;1.57;;;10.20;99.90;;;;;;4997771;28;20300;-96
2022/02/08 07:51:36;;;;;;;8.83;1.43;;;10.20;99.90;;;;;;4986830;28;20236;-95
2022/02/08 07:54:03;;;;;;;2.77;2.03;;;10.30;99.90;;;;;;4989626;28;20272;-94
2022/02/08 07:56:29;;;;;;;18.47;2.10;;;10.30;99.90;;;;;;4981058;28;20209;-92
2022/02/08 07:58:55;;;;;;;1.73;1.63;;;10.30;99.90;;;;;;4979534;28;20272;-92
2022/02/08 08:01:21;;;;;;;3.33;1.10;;;10.30;99.90;;;;;;4957028;28;20218;-93
2022/02/08 08:03:47;;;;;;;0.40;0.40;;;10.40;99.90;;;;;;4973808;28;20208;-92
2022/02/08 08:06:16;;;;;;;0.50;0.43;;;10.40;99.90;;;;;;4980823;28;20736;-93
2022/02/08 08:08:45;;;;;;;1.80;1.33;;;10.40;99.90;;;;;;4980142;28;20208;-93
2022/02/08 08:11:20;;;;;;;1.90;0.87;;;10.40;99.90;;;;;;4974815;28;20216;-94
2022/02/08 08:14:00;;;;;;;2.30;1.70;;;10.50;99.90;;;;;;4982346;28;20203;-93
2022/02/08 08:21:22;;;;;;;9.53;1.63;;;10.40;99.90;;;;;;4984028;28;20271;-92
2022/02/08 08:23:47;;;;;;;1.43;0.80;;;10.40;99.90;;;;;;4964394;28;20216;-93
2022/02/08 08:26:14;;;;;;;3.80;2.20;;;10.40;99.90;;;;;;4976477;28;20235;-93
2022/02/08 08:28:41;;;;;;;7.23;0.97;;;10.40;99.90;;;;;;4981682;28;20196;-93
2022/02/08 08:31:06;;;;;;;0.77;0.67;;;10.40;99.90;;;;;;4987114;28;20251;-95
2022/02/08 08:33:33;;;;;;;4.43;1.53;;;10.30;99.90;;;;;;4989198;28;20235;-93
2022/02/08 08:36:02;;;;;;;2.67;1.80;;;10.40;99.90;;;;;;4984832;28;20219;-94
2022/02/08 08:38:31;;;;;;;7.13;1.23;;;10.40;99.90;;;;;;4993379;28;20219;-95
2022/02/08 08:41:05;;;;;;;5.63;0.80;;;10.40;99.90;;;;;;4996440;28;20203;-94
2022/02/08 08:43:53;;;;;;;5.60;1.27;;;10.40;99.90;;;;;;4991929;28;20218;-95
2022/02/08 08:49:31;;;;;;;0.63;0.63;;;10.50;99.90;;;;;;4995211;28;20220;-95
2022/02/08 08:52:01;;;;;;;1.70;0.53;;;10.60;99.90;;;;;;4998916;28;20227;-94
2022/02/08 08:54:28;;;;;;;7.53;0.97;;;10.60;99.90;;;;;;5001982;28;20228;-94
2022/02/08 08:56:54;;;;;;;3.77;1.63;;;10.70;99.90;;;;;;4978237;28;20224;-94
2022/02/08 08:59:21;;;;;;;4.23;1.83;;;10.80;99.90;;;;;;4964302;28;20220;-94
2022/02/08 09:01:58;;;;;;;4.60;1.37;;;10.80;99.90;;;;;;4985249;28;20196;-94
2022/02/08 09:04:33;;;;;;;2.60;2.30;;;10.90;99.90;;;;;;4992685;28;20193;-94
2022/02/08 09:07:00;;;;;;;1.07;0.97;;;10.90;99.90;;;;;;4990536;28;20204;-94
2022/02/08 09:09:31;;;;;;;2.43;1.43;;;11.00;99.90;;;;;;5010128;28;20593;-93
2022/02/08 09:14:39;;;;;;;4.53;1.10;;;10.90;99.90;;;;;;4992360;28;20208;-96
2022/02/08 09:23:04;;;;;;;1.50;0.60;;;11.00;99.90;;;;;;4994456;28;20723;-95
2022/02/08 09:28:20;;;;;;;2.20;0.37;;;11.00;99.90;;;;;;4982348;28;20640;-96
2022/02/08 09:30:51;;;;;;;1.10;1.10;;;11.00;99.90;;;;;;4996362;28;20232;-96
2022/02/08 09:33:17;;;;;;;4.33;1.10;;;11.00;99.90;;;;;;4995424;28;20212;-94
2022/02/08 09:35:47;;;;;;;2.83;1.20;;;11.10;99.90;;;;;;4966840;28;20204;-95
2022/02/08 09:38:13;;;;;;;16.10;1.33;;;11.20;99.90;;;;;;4991660;28;20305;-94
2022/02/08 09:40:39;;;;;;;1.87;0.97;;;11.20;99.90;;;;;;4973090;28;20197;-94
2022/02/08 09:43:05;;;;;;;2.30;1.30;;;11.20;99.90;;;;;;4973591;28;20219;-93
2022/02/08 09:45:33;;;;;;;3.20;0.83;;;11.20;99.90;;;;;;4981917;28;20217;-94
2022/02/08 09:48:09;;;;;;;1.80;0.70;;;11.20;99.90;;;;;;4979556;28;20732;-94
2022/02/08 09:50:37;;;;;;;1.30;1.20;;;11.20;99.90;;;;;;4992125;28;20207;-94
2022/02/08 09:53:08;;;;;;;6.60;2.33;;;11.30;99.90;;;;;;4973870;28;20192;-94
2022/02/08 09:55:37;;;;;;;0.63;0.63;;;11.40;99.90;;;;;;4987035;28;20199;-96
2022/02/08 09:58:04;;;;;;;11.13;1.63;;;11.40;99.90;;;;;;4999222;28;20204;-93
2022/02/08 10:00:33;;;;;;;1.80;0.70;;;11.40;99.90;;;;;;4968465;28;20214;-96
2022/02/08 10:03:18;;;;;;;0.87;0.70;;;11.50;99.90;;;;;;4977710;28;20310;-95
2022/02/08 10:05:55;;;;;;;2.27;0.53;;;11.50;99.90;;;;;;4987891;28;20290;-93
2022/02/08 10:08:21;;;;;;;3.47;1.20;;;11.60;99.90;;;;;;4980004;28;20254;-96
2022/02/08 10:10:47;;;;;;;2.53;1.20;;;11.60;99.90;;;;;;4989881;28;20201;-96
2022/02/08 10:19:44;;;;;;;6.23;1.17;;;11.50;99.90;;;;;;4964951;28;20315;-95
2022/02/08 10:22:07;;;;;;;3.50;0.97;;;11.50;99.90;;;;;;4980158;28;20737;-95
2022/02/08 10:24:36;;;;;;;8.70;1.27;;;11.50;99.90;;;;;;4990551;28;20619;-92
2022/02/08 10:27:17;;;;;;;0.63;0.57;;;11.50;99.90;;;;;;4973319;28;20247;-93
2022/02/08 10:30:09;;;;;;;2.07;1.87;;;11.40;99.90;;;;;;4972264;28;20276;-94
2022/02/08 10:38:04;;;;;;;9.03;1.30;;;11.40;99.90;;;;;;4992916;28;20179;-95
2022/02/08 10:40:36;;;;;;;4.53;1.10;;;11.50;99.90;;;;;;5000735;28;20211;-95
2022/02/08 10:43:07;;;;;;;3.10;0.73;;;11.70;99.90;;;;;;4990307;28;20228;-93
2022/02/08 10:45:37;;;;;;;0.60;0.60;;;11.90;99.90;;;;;;4991029;28;20221;-93
2022/02/08 10:48:08;;;;;;;1.33;0.50;;;11.80;99.90;;;;;;4987424;28;20804;-96
2022/02/08 10:50:44;;;;;;;0.50;0.50;;;11.80;99.90;;;;;;4996116;28;20212;-96
2022/02/08 10:53:13;;;;;;;4.70;1.10;;;11.90;99.90;;;;;;4988903;28;20185;-96
2022/02/08 10:55:55;;;;;;;2.10;1.00;;;11.90;99.90;;;;;;4996416;28;20661;-96
2022/02/08 11:03:35;;;;;;;4.00;0.63;;;11.40;99.90;;;;;;4982997;28;20359;-94
2022/02/08 11:25:22;;;;;;;0.50;0.50;;;11.40;99.90;;;;;;4986957;28;20295;-93
2022/02/08 11:28:14;;;;;;;6.37;1.53;;;11.30;99.90;;;;;;4987641;28;20212;-93
2022/02/08 11:30:57;;;;;;;3.27;0.97;;;11.30;99.90;;;;;;4992586;28;20324;-95
2022/02/08 11:33:46;;;;;;;4.33;1.37;;;11.30;99.90;;;;;;4989767;28;20224;-95
2022/02/08 11:39:54;;;;;;;0.63;0.27;;;11.20;99.90;;;;;;4993519;28;20262;-96
2022/02/08 11:54:28;;;;;;;0.73;0.23;;;11.50;99.90;;;;;;4997470;28;20224;-93
2022/02/08 12:05:16;;;;;;;2.07;0.70;;;11.40;99.90;;;;;;4982099;28;20196;-92
2022/02/08 12:07:51;;;;;;;6.53;1.13;;;11.30;99.90;;;;;;4978456;28;20220;-94
2022/02/08 12:11:14;;;;;;;8.60;1.07;;;11.40;99.90;;;;;;4973135;28;20204;-94
2022/02/08 12:57:31;;;;;;;6.87;0.60;;;11.80;99.90;;;;;;4984024;28;20204;-94
2022/02/08 14:16:50;;;;;;;5.33;1.10;;;11.40;99.90;;;;;;4968962;28;20275;-94
2022/02/08 14:30:45;;;;;;;7.17;1.73;;;11.20;99.90;;;;;;4945650;29;20539;-93
2022/02/08 14:49:40;;;;;;;3.03;1.73;;;11.10;99.90;;;;;;4959125;28;20334;-94
2022/02/08 15:00:33;;;;;;;0.90;0.57;;;10.90;99.90;;;;;;4969274;28;20686;-90
2022/02/08 15:08:40;;;;;;;0.40;0.40;;;10.90;99.90;;;;;;4980718;28;20234;-90
2022/02/08 15:11:09;;;;;;;8.57;1.60;;;10.90;99.90;;;;;;4950206;28;20191;-91
2022/02/08 15:13:42;;;;;;;4.53;1.60;;;10.90;99.90;;;;;;4982521;28;20548;-92
2022/02/08 15:16:35;;;;;;;1.23;1.20;;;10.90;99.90;;;;;;4982670;28;20208;-93
2022/02/08 15:19:01;;;;;;;4.30;1.47;;;10.90;99.90;;;;;;4982818;28;20594;-90
2022/02/08 15:21:31;;;;;;;5.57;1.13;;;10.90;99.90;;;;;;4983268;28;20327;-92
2022/02/08 15:23:57;;;;;;;1.33;1.23;;;10.90;99.90;;;;;;4954243;28;20220;-94
2022/02/08 15:26:23;;;;;;;3.57;1.80;;;10.90;99.90;;;;;;4956867;28;20248;-92
2022/02/08 15:28:49;;;;;;;0.73;0.60;;;10.90;99.90;;;;;;4984269;28;20198;-94
2022/02/08 15:31:19;;;;;;;1.90;1.67;;;10.90;99.90;;;;;;4977771;28;21024;-93
2022/02/08 15:33:46;;;;;;;3.40;1.87;;;10.90;99.90;;;;;;4970754;28;20223;-93
2022/02/08 15:36:15;;;;;;;4.70;0.83;;;10.90;99.90;;;;;;4966828;28;20216;-93
2022/02/08 15:38:50;;;;;;;8.33;0.97;;;10.90;99.90;;;;;;4977085;28;20213;-91
2022/02/08 15:41:16;;;;;;;4.20;0.83;;;10.80;99.90;;;;;;5006906;23;20262;-88
2022/02/08 15:43:42;;;;;;;11.40;1.50;;;10.80;99.90;;;;;;4997862;28;20831;-88
2022/02/08 15:49:01;;;;;;;0.80;0.80;;;10.70;99.90;;;;;;4994995;28;20309;-90
2022/02/08 15:51:33;;;;;;;1.50;1.03;;;10.60;99.90;;;;;;4996269;28;20226;-89
2022/02/08 15:56:51;;;;;;;9.90;1.30;;;10.60;99.90;;;;;;4977683;28;20226;-93
2022/02/08 16:09:47;;;;;;;4.30;0.70;;;10.50;99.90;;;;;;4995045;28;20242;-90
2022/02/08 16:21:05;;;;;;;2.27;2.00;;;10.50;99.90;;;;;;4985817;28;20223;-90
2022/02/08 16:53:21;;;;;;;3.40;1.43;;;10.40;99.90;;;;;;4984458;28;20214;-90
2022/02/08 16:56:04;;;;;;;5.67;1.50;;;10.30;99.90;;;;;;4982914;28;20716;-89
2022/02/08 17:01:07;;;;;;;3.33;1.00;;;10.40;99.90;;;;;;4981196;28;20255;-90
2022/02/08 17:03:33;;;;;;;6.67;1.33;;;10.40;99.90;;;;;;4988403;28;20301;-88
2022/02/08 17:05:59;;;;;;;7.83;0.97;;;10.30;99.90;;;;;;4979612;28;20808;-87
2022/02/08 17:08:27;;;;;;;2.33;1.33;;;10.40;99.90;;;;;;4995892;28;20741;-89
2022/02/08 17:10:56;;;;;;;4.23;1.13;;;10.40;99.90;;;;;;4997408;28;20282;-87
2022/02/08 17:48:13;;;;;;;1.00;0.90;;;10.40;99.90;;;;;;4997147;28;20224;-88
2022/02/08 17:50:39;;;;;;;1.07;0.80;;;10.40;99.90;;;;;;4982004;28;20216;-91
2022/02/08 17:53:05;;;;;;;1.00;0.63;;;10.40;99.90;;;;;;4988067;28;21063;-95
2022/02/08 17:55:32;;;;;;;4.97;1.20;;;10.40;99.90;;;;;;4998473;28;20192;-90
2022/02/08 17:58:00;;;;;;;0.40;0.40;;;10.40;99.90;;;;;;4996920;28;20227;-89
2022/02/08 18:00:26;;;;;;;3.07;0.90;;;10.40;99.90;;;;;;4996032;28;20215;-90
2022/02/08 18:02:52;;;;;;;5.93;1.23;;;10.40;99.90;;;;;;4997304;28;20236;-89
2022/02/08 18:05:18;;;;;;;2.87;1.83;;;10.40;99.90;;;;;;4998281;28;20216;-91
2022/02/08 18:07:44;;;;;;;5.10;2.33;;;10.40;99.90;;;;;;4995772;28;21056;-88
2022/02/08 18:10:13;;;;;;;5.17;0.77;;;10.40;99.90;;;;;;4995131;28;20223;-89
2022/02/08 18:12:44;;;;;;;1.10;0.70;;;10.40;99.90;;;;;;4995213;28;20234;-87
2022/02/08 18:15:13;;;;;;;8.63;1.57;;;10.30;99.90;;;;;;4995790;28;20306;-87
2022/02/08 18:17:45;;;;;;;3.97;1.30;;;10.30;99.90;;;;;;4981444;28;20212;-88
2022/02/08 18:28:34;;;;;;;3.03;1.40;;;10.40;99.90;;;;;;4996378;28;20258;-89
2022/02/08 18:50:42;;;;;;;3.93;1.23;;;10.40;99.90;;;;;;4979084;28;20274;-86
2022/02/08 18:52:43;;;;;;;4.90;1.10;;;10.40;99.90;;;;;;4997052;28;20228;-88
2022/02/08 18:56:28;;;;;;;2.43;1.80;;;10.40;99.90;;;;;;4988569;28;20275;-87
2022/02/08 19:08:23;;;;;;;4.43;1.07;;;10.50;99.90;;;;;;4994369;28;20306;-89
2022/02/08 19:12:39;;;;;;;1.00;0.50;;;10.50;99.90;;;;;;4995311;28;20240;-88
2022/02/08 19:20:17;;;;;;;2.87;1.80;;;10.50;99.90;;;;;;4995256;28;20241;-88
2022/02/08 19:22:43;;;;;;;1.10;1.03;;;10.50;99.90;;;;;;4981558;28;20583;-87
2022/02/08 19:25:09;;;;;;;3.03;0.83;;;10.50;99.90;;;;;;4986828;28;20224;-89
2022/02/08 19:27:37;;;;;;;2.07;1.10;;;10.50;99.90;;;;;;4993397;28;20375;-89
2022/02/08 19:30:04;;;;;;;18.23;2.00;;;10.50;99.90;;;;;;4978799;28;20223;-89
2022/02/08 19:32:30;;;;;;;9.20;1.63;;;10.50;99.90;;;;;;4986654;28;20238;-89
2022/02/08 19:34:56;;;;;;;3.93;1.40;;;10.50;99.90;;;;;;4971606;28;20183;-90
2022/02/08 19:37:23;;;;;;;3.90;1.37;;;10.50;99.90;;;;;;4972202;28;20190;-89
2022/02/08 19:39:49;;;;;;;5.53;2.50;;;10.50;99.90;;;;;;4995657;28;20223;-88
2022/02/08 19:42:15;;;;;;;7.73;2.50;;;10.50;99.90;;;;;;4996974;28;20347;-90
2022/02/08 19:44:41;;;;;;;1.80;1.00;;;10.40;99.90;;;;;;4996402;28;20242;-89
2022/02/08 19:47:08;;;;;;;2.40;0.60;;;10.40;99.90;;;;;;4964828;28;20195;-88
2022/02/08 19:49:35;;;;;;;4.63;0.90;;;10.40;99.90;;;;;;4986900;28;20260;-90
2022/02/08 19:52:01;;;;;;;9.07;1.03;;;10.40;99.90;;;;;;4971630;28;20223;-87
2022/02/08 19:54:30;;;;;;;9.93;1.23;;;10.40;99.90;;;;;;4979756;28;20215;-88
2022/02/08 19:57:16;;;;;;;8.13;1.23;;;10.40;99.90;;;;;;4994865;28;20216;-89
2022/02/08 19:59:42;;;;;;;1.03;0.70;;;10.40;99.90;;;;;;4996105;28;20296;-89
2022/02/08 20:02:13;;;;;;;10.07;2.13;;;10.40;99.90;;;;;;4995701;28;20427;-87
2022/02/08 20:04:39;;;;;;;15.07;2.10;;;10.40;99.90;;;;;;4980711;28;20316;-89
2022/02/08 20:07:06;;;;;;;3.37;1.23;;;10.40;99.90;;;;;;4994906;28;20239;-88
2022/02/08 20:09:32;;;;;;;1.13;0.93;;;10.40;99.90;;;;;;4994358;28;20640;-90
2022/02/08 20:11:58;;;;;;;6.67;1.40;;;10.40;99.90;;;;;;4978853;28;20224;-88
2022/02/08 20:14:24;;;;;;;3.30;1.33;;;10.40;99.90;;;;;;4970285;28;21058;-89
2022/02/08 20:16:51;;;;;;;5.63;1.97;;;10.40;99.90;;;;;;4997118;28;20246;-88
2022/02/08 20:19:19;;;;;;;1.23;1.13;;;10.40;99.90;;;;;;4993163;28;20567;-90
2022/02/08 20:21:47;;;;;;;0.27;0.27;;;10.40;99.90;;;;;;4977812;28;20230;-88
2022/02/08 20:24:15;;;;;;;1.57;0.57;;;10.40;99.90;;;;;;4978236;28;20242;-88
2022/02/08 20:29:24;;;;;;;2.23;0.57;;;10.40;99.90;;;;;;4993718;28;20647;-88
2022/02/08 20:31:51;;;;;;;5.40;1.37;;;10.50;99.90;;;;;;4994124;28;20210;-88
2022/02/08 20:34:19;;;;;;;1.20;0.67;;;10.50;99.90;;;;;;4996317;28;20227;-88
2022/02/08 20:36:46;;;;;;;4.73;1.03;;;10.50;99.90;;;;;;4995959;28;20285;-89
2022/02/08 20:39:12;;;;;;;3.73;1.37;;;10.50;99.90;;;;;;4994643;28;20247;-89
2022/02/08 20:41:39;;;;;;;2.97;1.37;;;10.40;99.90;;;;;;4995877;28;20240;-89
2022/02/08 20:44:08;;;;;;;2.07;1.00;;;10.50;99.90;;;;;;4997052;28;20659;-90
2022/02/08 20:46:34;;;;;;;7.33;1.03;;;10.50;99.90;;;;;;4971675;28;20199;-87
2022/02/08 20:48:59;;;;;;;2.23;1.00;;;10.50;99.90;;;;;;4985666;28;20228;-88